sensor_id;sensor_type;location;lat;lon;timestamp;temperature;humidity
9837;DHT22;4957;51.412;6.724;2023-03-23T00:01:01;12.80;99.90
9837;DHT22;4957;51.412;6.724;2023-03-23T00:03:27;12.80;99.90
9837;DHT22;4957;51.412;6.724;2023-03-23T00:05:58;12.80;99.90
9837;DHT22;4957;51.412;6.724;2023-03-23T00:08:32;12.80;99.90
9837;DHT22;4957;51.412;6.724;2023-03-23T00:10:59;12.80;99.90
9837;DHT22;4957;51.412;6.724;2023-03-23T00:13:28;12.80;99.90
9837;DHT22;4957;51.412;6.724;2023-03-23T00:15:54;12.80;99.90
9837;DHT22;4957;51.412;6.724;2023-03-23T00:18:22;12.80;99.90
9837;DHT22;4957;51.412;6.724;2023-03-23T00:20:50;12.80;99.90
9837;DHT22;4957;51.412;6.724;2023-03-23T00:23:18;12.80;99.90
9837;DHT22;4957;51.412;6.724;2023-03-23T00:25:52;12.80;99.90
9837;DHT22;4957;51.412;6.724;2023-03-23T00:28:25;12.80;99.90
9837;DHT22;4957;51.412;6.724;2023-03-23T00:31:01;12.70;99.90
9837;DHT22;4957;51.412;6.724;2023-03-23T00:33:30;12.80;99.90
9837;DHT22;4957;51.412;6.724;2023-03-23T00:36:04;12.70;99.90
9837;DHT22;4957;51.412;6.724;2023-03-23T00:38:31;12.70;99.90
9837;DHT22;4957;51.412;6.724;2023-03-23T00:40:57;12.70;99.90
9837;DHT22;4957;51.412;6.724;2023-03-23T00:43:23;12.70;99.90
9837;DHT22;4957;51.412;6.724;2023-03-23T00:45:55;12.70;99.90
9837;DHT22;4957;51.412;6.724;2023-03-23T00:48:24;12.70;99.90
9837;DHT22;4957;51.412;6.724;2023-03-23T00:50:50;12.70;99.90
9837;DHT22;4957;51.412;6.724;2023-03-23T00:53:17;12.70;99.90
9837;DHT22;4957;51.412;6.724;2023-03-23T00:55:45;12.70;99.90
9837;DHT22;4957;51.412;6.724;2023-03-23T00:58:12;12.70;99.90
9837;DHT22;4957;51.412;6.724;2023-03-23T01:00:38;12.70;99.90
9837;DHT22;4957;51.412;6.724;2023-03-23T01:03:04;12.70;99.90
9837;DHT22;4957;51.412;6.724;2023-03-23T01:05:34;12.70;99.90
9837;DHT22;4957;51.412;6.724;2023-03-23T01:08:02;12.70;99.90
9837;DHT22;4957;51.412;6.724;2023-03-23T01:10:28;12.60;99.90
9837;DHT22;4957;51.412;6.724;2023-03-23T01:12:54;12.70;99.90
9837;DHT22;4957;51.412;6.724;2023-03-23T01:15:20;12.70;99.90
9837;DHT22;4957;51.412;6.724;2023-03-23T01:17:47;12.70;99.90
9837;DHT22;4957;51.412;6.724;2023-03-23T01:20:14;12.60;99.90
9837;DHT22;4957;51.412;6.724;2023-03-23T01:22:41;12.60;99.90
9837;DHT22;4957;51.412;6.724;2023-03-23T01:25:08;12.60;99.90
9837;DHT22;4957;51.412;6.724;2023-03-23T01:27:34;12.60;99.90
9837;DHT22;4957;51.412;6.724;2023-03-23T01:29:59;12.60;99.90
9837;DHT22;4957;51.412;6.724;2023-03-23T01:32:25;12.60;99.90
9837;DHT22;4957;51.412;6.724;2023-03-23T01:34:51;12.60;99.90
9837;DHT22;4957;51.412;6.724;2023-03-23T01:37:16;12.60;99.90
9837;DHT22;4957;51.412;6.724;2023-03-23T01:39:43;12.60;99.90
9837;DHT22;4957;51.412;6.724;2023-03-23T01:42:09;12.60;99.90
9837;DHT22;4957;51.412;6.724;2023-03-23T01:47:00;12.60;99.90
9837;DHT22;4957;51.412;6.724;2023-03-23T01:49:39;12.50;99.90
9837;DHT22;4957;51.412;6.724;2023-03-23T01:52:14;12.60;99.90
9837;DHT22;4957;51.412;6.724;2023-03-23T01:54:43;12.60;99.90
9837;DHT22;4957;51.412;6.724;2023-03-23T01:57:17;12.60;99.90
9837;DHT22;4957;51.412;6.724;2023-03-23T01:59:47;12.60;99.90
9837;DHT22;4957;51.412;6.724;2023-03-23T02:02:14;12.60;99.90
9837;DHT22;4957;51.412;6.724;2023-03-23T02:04:41;12.60;99.90
9837;DHT22;4957;51.412;6.724;2023-03-23T02:07:07;12.60;99.90
9837;DHT22;4957;51.412;6.724;2023-03-23T02:09:33;12.60;99.90
9837;DHT22;4957;51.412;6.724;2023-03-23T02:11:59;12.60;99.90
9837;DHT22;4957;51.412;6.724;2023-03-23T02:14:27;12.60;99.90
9837;DHT22;4957;51.412;6.724;2023-03-23T02:17:18;12.60;99.90
9837;DHT22;4957;51.412;6.724;2023-03-23T02:20:13;12.60;99.90
9837;DHT22;4957;51.412;6.724;2023-03-23T02:28:49;12.60;99.90
9837;DHT22;4957;51.412;6.724;2023-03-23T02:31:42;12.60;99.90
9837;DHT22;4957;51.412;6.724;2023-03-23T02:34:27;12.60;99.90
9837;DHT22;4957;51.412;6.724;2023-03-23T02:37:08;12.60;99.90
9837;DHT22;4957;51.412;6.724;2023-03-23T02:39:48;12.60;99.90
9837;DHT22;4957;51.412;6.724;2023-03-23T02:42:20;12.60;99.90
9837;DHT22;4957;51.412;6.724;2023-03-23T02:44:48;12.50;99.90
9837;DHT22;4957;51.412;6.724;2023-03-23T02:47:19;12.50;99.90
9837;DHT22;4957;51.412;6.724;2023-03-23T02:49:48;12.50;99.90
9837;DHT22;4957;51.412;6.724;2023-03-23T02:52:19;12.50;99.90
9837;DHT22;4957;51.412;6.724;2023-03-23T02:54:48;12.50;99.90
9837;DHT22;4957;51.412;6.724;2023-03-23T02:57:14;12.50;99.90
9837;DHT22;4957;51.412;6.724;2023-03-23T02:59:40;12.50;99.90
9837;DHT22;4957;51.412;6.724;2023-03-23T03:02:23;12.50;99.90
9837;DHT22;4957;51.412;6.724;2023-03-23T03:07:43;12.50;99.90
9837;DHT22;4957;51.412;6.724;2023-03-23T03:10:22;12.50;99.90
9837;DHT22;4957;51.412;6.724;2023-03-23T03:15:35;12.50;99.90
9837;DHT22;4957;51.412;6.724;2023-03-23T03:18:07;12.60;99.90
9837;DHT22;4957;51.412;6.724;2023-03-23T03:20:40;12.50;99.90
9837;DHT22;4957;51.412;6.724;2023-03-23T03:23:10;12.50;99.90
9837;DHT22;4957;51.412;6.724;2023-03-23T03:25:39;12.60;99.90
9837;DHT22;4957;51.412;6.724;2023-03-23T03:28:06;12.50;99.90
9837;DHT22;4957;51.412;6.724;2023-03-23T03:30:34;12.60;99.90
9837;DHT22;4957;51.412;6.724;2023-03-23T03:33:01;12.50;99.90
9837;DHT22;4957;51.412;6.724;2023-03-23T03:35:29;12.50;99.90
9837;DHT22;4957;51.412;6.724;2023-03-23T03:37:56;12.60;99.90
9837;DHT22;4957;51.412;6.724;2023-03-23T03:40:23;12.60;99.90
9837;DHT22;4957;51.412;6.724;2023-03-23T03:42:49;12.50;99.90
9837;DHT22;4957;51.412;6.724;2023-03-23T03:45:19;12.50;99.90
9837;DHT22;4957;51.412;6.724;2023-03-23T03:47:44;12.50;99.90
9837;DHT22;4957;51.412;6.724;2023-03-23T03:50:10;12.50;99.90
9837;DHT22;4957;51.412;6.724;2023-03-23T03:52:37;12.50;99.90
9837;DHT22;4957;51.412;6.724;2023-03-23T03:55:05;12.50;99.90
9837;DHT22;4957;51.412;6.724;2023-03-23T03:57:32;12.50;99.90
9837;DHT22;4957;51.412;6.724;2023-03-23T03:59:58;12.50;99.90
9837;DHT22;4957;51.412;6.724;2023-03-23T04:02:24;12.50;99.90
9837;DHT22;4957;51.412;6.724;2023-03-23T04:04:50;12.50;99.90
9837;DHT22;4957;51.412;6.724;2023-03-23T04:07:18;12.50;99.90
9837;DHT22;4957;51.412;6.724;2023-03-23T04:09:45;12.50;99.90
9837;DHT22;4957;51.412;6.724;2023-03-23T04:12:15;12.50;99.90
9837;DHT22;4957;51.412;6.724;2023-03-23T04:14:41;12.50;99.90
9837;DHT22;4957;51.412;6.724;2023-03-23T04:17:07;12.50;99.90
9837;DHT22;4957;51.412;6.724;2023-03-23T04:19:35;12.50;99.90
9837;DHT22;4957;51.412;6.724;2023-03-23T04:22:03;12.50;99.90
9837;DHT22;4957;51.412;6.724;2023-03-23T04:24:30;12.50;99.90
9837;DHT22;4957;51.412;6.724;2023-03-23T04:26:59;12.50;99.90
9837;DHT22;4957;51.412;6.724;2023-03-23T04:29:25;12.60;99.90
9837;DHT22;4957;51.412;6.724;2023-03-23T04:31:52;12.50;99.90
9837;DHT22;4957;51.412;6.724;2023-03-23T04:34:18;12.50;99.90
9837;DHT22;4957;51.412;6.724;2023-03-23T04:36:44;12.50;99.90
9837;DHT22;4957;51.412;6.724;2023-03-23T04:39:12;12.50;99.90
9837;DHT22;4957;51.412;6.724;2023-03-23T04:41:39;12.60;99.90
9837;DHT22;4957;51.412;6.724;2023-03-23T04:44:06;12.60;99.90
9837;DHT22;4957;51.412;6.724;2023-03-23T04:46:32;12.60;99.90
9837;DHT22;4957;51.412;6.724;2023-03-23T04:48:58;12.60;99.90
9837;DHT22;4957;51.412;6.724;2023-03-23T04:51:25;12.60;99.90
9837;DHT22;4957;51.412;6.724;2023-03-23T04:53:52;12.60;99.90
9837;DHT22;4957;51.412;6.724;2023-03-23T04:56:18;12.60;99.90
9837;DHT22;4957;51.412;6.724;2023-03-23T04:58:44;12.60;99.90
9837;DHT22;4957;51.412;6.724;2023-03-23T05:01:11;12.60;99.90
9837;DHT22;4957;51.412;6.724;2023-03-23T05:03:43;12.60;99.90
9837;DHT22;4957;51.412;6.724;2023-03-23T05:06:09;12.60;99.90
9837;DHT22;4957;51.412;6.724;2023-03-23T05:08:35;12.60;99.90
9837;DHT22;4957;51.412;6.724;2023-03-23T05:11:05;12.60;99.90
9837;DHT22;4957;51.412;6.724;2023-03-23T05:13:31;12.60;99.90
9837;DHT22;4957;51.412;6.724;2023-03-23T05:15:57;12.60;99.90
9837;DHT22;4957;51.412;6.724;2023-03-23T05:18:22;12.60;99.90
9837;DHT22;4957;51.412;6.724;2023-03-23T05:20:48;12.60;99.90
9837;DHT22;4957;51.412;6.724;2023-03-23T05:23:14;12.60;99.90
9837;DHT22;4957;51.412;6.724;2023-03-23T05:25:41;12.60;99.90
9837;DHT22;4957;51.412;6.724;2023-03-23T05:28:07;12.60;99.90
9837;DHT22;4957;51.412;6.724;2023-03-23T05:30:34;12.60;99.90
9837;DHT22;4957;51.412;6.724;2023-03-23T05:32:59;12.60;99.90
9837;DHT22;4957;51.412;6.724;2023-03-23T05:35:25;12.60;99.90
9837;DHT22;4957;51.412;6.724;2023-03-23T05:37:51;12.60;99.90
9837;DHT22;4957;51.412;6.724;2023-03-23T05:40:19;12.70;99.90
9837;DHT22;4957;51.412;6.724;2023-03-23T05:42:46;12.60;99.90
9837;DHT22;4957;51.412;6.724;2023-03-23T05:45:12;12.60;99.90
9837;DHT22;4957;51.412;6.724;2023-03-23T05:47:39;12.70;99.90
9837;DHT22;4957;51.412;6.724;2023-03-23T05:50:06;12.60;99.90
9837;DHT22;4957;51.412;6.724;2023-03-23T05:52:35;12.60;99.90
9837;DHT22;4957;51.412;6.724;2023-03-23T05:55:02;12.70;99.90
9837;DHT22;4957;51.412;6.724;2023-03-23T05:57:29;12.70;99.90
9837;DHT22;4957;51.412;6.724;2023-03-23T05:59:55;12.70;99.90
9837;DHT22;4957;51.412;6.724;2023-03-23T06:02:21;12.70;99.90
9837;DHT22;4957;51.412;6.724;2023-03-23T06:04:48;12.70;99.90
9837;DHT22;4957;51.412;6.724;2023-03-23T06:07:14;12.70;99.90
9837;DHT22;4957;51.412;6.724;2023-03-23T06:09:41;12.70;99.90
9837;DHT22;4957;51.412;6.724;2023-03-23T06:12:08;12.70;99.90
9837;DHT22;4957;51.412;6.724;2023-03-23T06:14:35;12.70;99.90
9837;DHT22;4957;51.412;6.724;2023-03-23T06:17:02;12.70;99.90
9837;DHT22;4957;51.412;6.724;2023-03-23T06:19:27;12.70;99.90
9837;DHT22;4957;51.412;6.724;2023-03-23T06:21:56;12.70;99.90
9837;DHT22;4957;51.412;6.724;2023-03-23T06:24:22;12.70;99.90
9837;DHT22;4957;51.412;6.724;2023-03-23T06:26:47;12.70;99.90
9837;DHT22;4957;51.412;6.724;2023-03-23T06:29:14;12.70;99.90
9837;DHT22;4957;51.412;6.724;2023-03-23T06:31:43;12.70;99.90
9837;DHT22;4957;51.412;6.724;2023-03-23T06:34:10;12.70;99.90
9837;DHT22;4957;51.412;6.724;2023-03-23T06:36:37;12.70;99.90
9837;DHT22;4957;51.412;6.724;2023-03-23T06:39:04;12.70;99.90
9837;DHT22;4957;51.412;6.724;2023-03-23T06:41:30;12.70;99.90
9837;DHT22;4957;51.412;6.724;2023-03-23T06:43:57;12.70;99.90
9837;DHT22;4957;51.412;6.724;2023-03-23T06:46:23;12.80;99.90
9837;DHT22;4957;51.412;6.724;2023-03-23T06:48:48;12.80;99.90
9837;DHT22;4957;51.412;6.724;2023-03-23T06:51:17;12.80;99.90
9837;DHT22;4957;51.412;6.724;2023-03-23T06:53:44;12.80;99.90
9837;DHT22;4957;51.412;6.724;2023-03-23T06:56:10;12.90;99.90
9837;DHT22;4957;51.412;6.724;2023-03-23T06:58:37;12.90;99.90
9837;DHT22;4957;51.412;6.724;2023-03-23T07:01:03;12.90;99.90
9837;DHT22;4957;51.412;6.724;2023-03-23T07:03:29;12.90;99.90
9837;DHT22;4957;51.412;6.724;2023-03-23T07:05:56;12.90;99.90
9837;DHT22;4957;51.412;6.724;2023-03-23T07:08:23;12.90;99.90
9837;DHT22;4957;51.412;6.724;2023-03-23T07:10:51;13.00;99.90
9837;DHT22;4957;51.412;6.724;2023-03-23T07:13:18;13.00;99.90
9837;DHT22;4957;51.412;6.724;2023-03-23T07:15:44;13.00;99.90
9837;DHT22;4957;51.412;6.724;2023-03-23T07:18:10;13.00;99.90
9837;DHT22;4957;51.412;6.724;2023-03-23T07:20:36;13.10;99.90
9837;DHT22;4957;51.412;6.724;2023-03-23T07:23:03;13.10;99.90
9837;DHT22;4957;51.412;6.724;2023-03-23T07:25:32;13.10;99.90
9837;DHT22;4957;51.412;6.724;2023-03-23T07:27:59;13.10;99.90
9837;DHT22;4957;51.412;6.724;2023-03-23T07:30:25;13.20;99.90
9837;DHT22;4957;51.412;6.724;2023-03-23T07:32:51;13.20;99.90
9837;DHT22;4957;51.412;6.724;2023-03-23T07:35:17;13.20;99.90
9837;DHT22;4957;51.412;6.724;2023-03-23T07:37:43;13.30;99.90
9837;DHT22;4957;51.412;6.724;2023-03-23T07:40:09;13.30;99.90
9837;DHT22;4957;51.412;6.724;2023-03-23T07:42:42;13.30;99.90
9837;DHT22;4957;51.412;6.724;2023-03-23T07:45:10;13.30;99.90
9837;DHT22;4957;51.412;6.724;2023-03-23T07:47:36;13.30;99.90
9837;DHT22;4957;51.412;6.724;2023-03-23T07:50:02;13.30;99.90
9837;DHT22;4957;51.412;6.724;2023-03-23T07:52:28;13.40;99.90
9837;DHT22;4957;51.412;6.724;2023-03-23T07:54:53;13.40;99.90
9837;DHT22;4957;51.412;6.724;2023-03-23T07:57:19;13.40;99.80
9837;DHT22;4957;51.412;6.724;2023-03-23T07:59:45;13.40;99.70
9837;DHT22;4957;51.412;6.724;2023-03-23T08:02:11;13.40;99.80
9837;DHT22;4957;51.412;6.724;2023-03-23T08:04:37;13.40;99.60
9837;DHT22;4957;51.412;6.724;2023-03-23T08:07:03;13.40;99.50
9837;DHT22;4957;51.412;6.724;2023-03-23T08:09:30;13.50;99.60
9837;DHT22;4957;51.412;6.724;2023-03-23T08:11:56;13.50;99.40
9837;DHT22;4957;51.412;6.724;2023-03-23T08:14:22;13.50;99.40
9837;DHT22;4957;51.412;6.724;2023-03-23T08:16:48;13.50;99.30
9837;DHT22;4957;51.412;6.724;2023-03-23T08:19:14;13.60;99.30
9837;DHT22;4957;51.412;6.724;2023-03-23T08:21:40;13.60;99.30
9837;DHT22;4957;51.412;6.724;2023-03-23T08:24:06;13.60;99.30
9837;DHT22;4957;51.412;6.724;2023-03-23T08:26:32;13.60;99.10
9837;DHT22;4957;51.412;6.724;2023-03-23T08:28:57;13.70;99.10
9837;DHT22;4957;51.412;6.724;2023-03-23T08:31:23;13.70;99.00
9837;DHT22;4957;51.412;6.724;2023-03-23T08:33:50;13.70;98.80
9837;DHT22;4957;51.412;6.724;2023-03-23T08:36:15;13.80;98.80
9837;DHT22;4957;51.412;6.724;2023-03-23T08:38:41;13.80;98.80
9837;DHT22;4957;51.412;6.724;2023-03-23T08:41:08;13.80;98.70
9837;DHT22;4957;51.412;6.724;2023-03-23T08:43:34;13.90;98.70
9837;DHT22;4957;51.412;6.724;2023-03-23T08:46:00;13.90;98.60
9837;DHT22;4957;51.412;6.724;2023-03-23T08:48:32;13.90;98.50
9837;DHT22;4957;51.412;6.724;2023-03-23T08:50:58;14.00;98.70
9837;DHT22;4957;51.412;6.724;2023-03-23T08:53:25;14.00;98.60
9837;DHT22;4957;51.412;6.724;2023-03-23T08:55:51;14.10;98.50
9837;DHT22;4957;51.412;6.724;2023-03-23T08:58:17;14.10;98.30
9837;DHT22;4957;51.412;6.724;2023-03-23T09:00:43;14.20;98.20
9837;DHT22;4957;51.412;6.724;2023-03-23T09:03:09;14.20;97.90
9837;DHT22;4957;51.412;6.724;2023-03-23T09:05:34;14.20;97.90
9837;DHT22;4957;51.412;6.724;2023-03-23T09:08:01;14.20;97.90
9837;DHT22;4957;51.412;6.724;2023-03-23T09:10:28;14.20;97.60
9837;DHT22;4957;51.412;6.724;2023-03-23T09:12:55;14.20;97.50
9837;DHT22;4957;51.412;6.724;2023-03-23T09:15:22;14.20;97.50
9837;DHT22;4957;51.412;6.724;2023-03-23T09:17:49;14.20;97.60
9837;DHT22;4957;51.412;6.724;2023-03-23T09:20:18;14.20;97.40
9837;DHT22;4957;51.412;6.724;2023-03-23T09:22:46;14.20;97.20
9837;DHT22;4957;51.412;6.724;2023-03-23T09:25:14;14.20;97.30
9837;DHT22;4957;51.412;6.724;2023-03-23T09:27:42;14.20;97.20
9837;DHT22;4957;51.412;6.724;2023-03-23T09:30:12;14.20;97.10
9837;DHT22;4957;51.412;6.724;2023-03-23T09:32:40;14.20;97.10
9837;DHT22;4957;51.412;6.724;2023-03-23T09:35:09;14.20;97.30
9837;DHT22;4957;51.412;6.724;2023-03-23T09:37:37;14.20;97.30
9837;DHT22;4957;51.412;6.724;2023-03-23T09:40:06;14.20;97.60
9837;DHT22;4957;51.412;6.724;2023-03-23T09:50:35;14.00;98.10
9837;DHT22;4957;51.412;6.724;2023-03-23T09:53:19;14.00;98.20
9837;DHT22;4957;51.412;6.724;2023-03-23T09:55:46;14.00;98.30
9837;DHT22;4957;51.412;6.724;2023-03-23T09:58:22;13.90;98.30
9837;DHT22;4957;51.412;6.724;2023-03-23T10:01:07;13.90;98.80
9837;DHT22;4957;51.412;6.724;2023-03-23T10:03:40;13.90;98.60
9837;DHT22;4957;51.412;6.724;2023-03-23T10:06:10;13.90;98.80
9837;DHT22;4957;51.412;6.724;2023-03-23T10:08:49;13.90;98.80
9837;DHT22;4957;51.412;6.724;2023-03-23T10:16:36;13.90;99.00
9837;DHT22;4957;51.412;6.724;2023-03-23T10:19:27;13.80;99.10
9837;DHT22;4957;51.412;6.724;2023-03-23T10:22:02;13.90;99.30
9837;DHT22;4957;51.412;6.724;2023-03-23T10:29:46;13.80;99.60
9837;DHT22;4957;51.412;6.724;2023-03-23T10:32:18;13.80;99.60
9837;DHT22;4957;51.412;6.724;2023-03-23T10:34:58;13.80;99.70
9837;DHT22;4957;51.412;6.724;2023-03-23T10:37:31;13.80;99.70
9837;DHT22;4957;51.412;6.724;2023-03-23T10:40:00;13.80;99.80
9837;DHT22;4957;51.412;6.724;2023-03-23T10:42:28;13.80;99.90
9837;DHT22;4957;51.412;6.724;2023-03-23T10:44:56;13.80;99.90
9837;DHT22;4957;51.412;6.724;2023-03-23T10:47:23;13.80;99.90
9837;DHT22;4957;51.412;6.724;2023-03-23T10:50:00;13.80;99.90
9837;DHT22;4957;51.412;6.724;2023-03-23T10:52:37;13.80;99.90
9837;DHT22;4957;51.412;6.724;2023-03-23T10:55:15;13.80;99.90
9837;DHT22;4957;51.412;6.724;2023-03-23T10:57:45;13.80;99.90
9837;DHT22;4957;51.412;6.724;2023-03-23T11:02:47;13.80;99.90
9837;DHT22;4957;51.412;6.724;2023-03-23T11:05:19;13.70;99.90
9837;DHT22;4957;51.412;6.724;2023-03-23T11:08:04;13.70;99.90
9837;DHT22;4957;51.412;6.724;2023-03-23T11:10:39;13.70;99.90
9837;DHT22;4957;51.412;6.724;2023-03-23T11:13:14;13.70;99.90
9837;DHT22;4957;51.412;6.724;2023-03-23T11:15:42;13.70;99.90
9837;DHT22;4957;51.412;6.724;2023-03-23T11:18:19;13.70;99.90
9837;DHT22;4957;51.412;6.724;2023-03-23T11:20:49;13.70;99.90
9837;DHT22;4957;51.412;6.724;2023-03-23T11:23:33;13.70;99.90
9837;DHT22;4957;51.412;6.724;2023-03-23T11:26:16;13.70;99.90
9837;DHT22;4957;51.412;6.724;2023-03-23T11:28:51;13.70;99.90
9837;DHT22;4957;51.412;6.724;2023-03-23T11:31:44;13.70;99.90
9837;DHT22;4957;51.412;6.724;2023-03-23T11:34:41;13.70;99.90
9837;DHT22;4957;51.412;6.724;2023-03-23T11:37:12;13.70;99.90
9837;DHT22;4957;51.412;6.724;2023-03-23T11:39:53;13.80;99.90
9837;DHT22;4957;51.412;6.724;2023-03-23T11:42:23;13.80;99.90
9837;DHT22;4957;51.412;6.724;2023-03-23T11:44:54;13.80;99.90
9837;DHT22;4957;51.412;6.724;2023-03-23T11:47:30;13.80;99.90
9837;DHT22;4957;51.412;6.724;2023-03-23T11:52:42;13.90;99.90
9837;DHT22;4957;51.412;6.724;2023-03-23T11:56:00;14.00;99.90
9837;DHT22;4957;51.412;6.724;2023-03-23T11:58:11;14.00;99.90
9837;DHT22;4957;51.412;6.724;2023-03-23T12:00:55;14.00;99.90
9837;DHT22;4957;51.412;6.724;2023-03-23T12:06:41;14.10;99.90
9837;DHT22;4957;51.412;6.724;2023-03-23T12:09:16;14.10;99.90
9837;DHT22;4957;51.412;6.724;2023-03-23T12:12:12;14.10;99.90
9837;DHT22;4957;51.412;6.724;2023-03-23T12:18:05;14.20;99.90
9837;DHT22;4957;51.412;6.724;2023-03-23T12:25:54;14.10;99.90
9837;DHT22;4957;51.412;6.724;2023-03-23T12:38:47;14.30;99.90
9837;DHT22;4957;51.412;6.724;2023-03-23T12:41:17;14.40;99.90
9837;DHT22;4957;51.412;6.724;2023-03-23T12:44:09;14.40;99.90
9837;DHT22;4957;51.412;6.724;2023-03-23T12:52:22;14.60;99.90
9837;DHT22;4957;51.412;6.724;2023-03-23T13:10:45;14.90;99.90
9837;DHT22;4957;51.412;6.724;2023-03-23T13:13:23;14.90;99.90
9837;DHT22;4957;51.412;6.724;2023-03-23T13:16:10;15.00;99.90
9837;DHT22;4957;51.412;6.724;2023-03-23T13:18:40;15.00;99.90
9837;DHT22;4957;51.412;6.724;2023-03-23T13:21:15;15.00;99.90
9837;DHT22;4957;51.412;6.724;2023-03-23T13:23:47;15.10;99.90
9837;DHT22;4957;51.412;6.724;2023-03-23T13:26:20;15.00;99.90
9837;DHT22;4957;51.412;6.724;2023-03-23T13:31:45;15.10;99.90
9837;DHT22;4957;51.412;6.724;2023-03-23T13:34:20;15.10;99.90
9837;DHT22;4957;51.412;6.724;2023-03-23T13:37:00;15.10;99.90
9837;DHT22;4957;51.412;6.724;2023-03-23T13:39:36;15.10;99.90
9837;DHT22;4957;51.412;6.724;2023-03-23T13:49:56;15.20;99.90
9837;DHT22;4957;51.412;6.724;2023-03-23T13:57:55;15.30;99.90
9837;DHT22;4957;51.412;6.724;2023-03-23T14:03:14;15.40;99.90
9837;DHT22;4957;51.412;6.724;2023-03-23T14:05:48;15.40;99.90
9837;DHT22;4957;51.412;6.724;2023-03-23T14:08:20;15.40;99.90
9837;DHT22;4957;51.412;6.724;2023-03-23T14:11:09;15.50;99.90
9837;DHT22;4957;51.412;6.724;2023-03-23T14:16:42;15.60;99.90
9837;DHT22;4957;51.412;6.724;2023-03-23T14:19:22;15.60;99.90
9837;DHT22;4957;51.412;6.724;2023-03-23T14:21:55;15.70;99.90
9837;DHT22;4957;51.412;6.724;2023-03-23T14:24:26;15.70;99.90
9837;DHT22;4957;51.412;6.724;2023-03-23T14:27:01;15.70;99.90
9837;DHT22;4957;51.412;6.724;2023-03-23T14:29:27;15.70;99.90
9837;DHT22;4957;51.412;6.724;2023-03-23T14:31:55;15.80;99.90
9837;DHT22;4957;51.412;6.724;2023-03-23T14:34:25;15.70;99.90
9837;DHT22;4957;51.412;6.724;2023-03-23T14:36:53;15.70;99.90
9837;DHT22;4957;51.412;6.724;2023-03-23T14:39:29;15.70;99.90
9837;DHT22;4957;51.412;6.724;2023-03-23T14:42:09;15.70;99.90
9837;DHT22;4957;51.412;6.724;2023-03-23T14:44:48;15.60;99.90
9837;DHT22;4957;51.412;6.724;2023-03-23T14:47:21;15.60;99.90
9837;DHT22;4957;51.412;6.724;2023-03-23T14:49:53;15.60;99.90
9837;DHT22;4957;51.412;6.724;2023-03-23T14:52:22;15.60;99.90
9837;DHT22;4957;51.412;6.724;2023-03-23T14:54:48;15.60;99.90
9837;DHT22;4957;51.412;6.724;2023-03-23T14:57:26;15.60;99.90
9837;DHT22;4957;51.412;6.724;2023-03-23T14:59:52;15.60;99.90
9837;DHT22;4957;51.412;6.724;2023-03-23T15:02:36;15.60;99.90
9837;DHT22;4957;51.412;6.724;2023-03-23T15:05:09;15.60;99.90
9837;DHT22;4957;51.412;6.724;2023-03-23T15:07:38;15.60;99.90
9837;DHT22;4957;51.412;6.724;2023-03-23T15:10:09;15.70;99.90
9837;DHT22;4957;51.412;6.724;2023-03-23T15:12:38;15.70;99.90
9837;DHT22;4957;51.412;6.724;2023-03-23T15:15:07;15.70;99.90
9837;DHT22;4957;51.412;6.724;2023-03-23T15:17:39;15.70;99.90
9837;DHT22;4957;51.412;6.724;2023-03-23T15:20:11;15.80;99.90
9837;DHT22;4957;51.412;6.724;2023-03-23T15:22:47;15.80;99.90
9837;DHT22;4957;51.412;6.724;2023-03-23T15:25:33;15.80;99.90
9837;DHT22;4957;51.412;6.724;2023-03-23T15:28:14;15.80;99.90
9837;DHT22;4957;51.412;6.724;2023-03-23T15:30:50;15.70;99.90
9837;DHT22;4957;51.412;6.724;2023-03-23T15:33:16;15.70;99.90
9837;DHT22;4957;51.412;6.724;2023-03-23T15:35:47;15.70;99.90
9837;DHT22;4957;51.412;6.724;2023-03-23T15:38:25;15.70;99.90
9837;DHT22;4957;51.412;6.724;2023-03-23T15:40:56;15.60;99.90
9837;DHT22;4957;51.412;6.724;2023-03-23T15:43:27;15.60;99.90
9837;DHT22;4957;51.412;6.724;2023-03-23T15:46:01;15.60;99.90
9837;DHT22;4957;51.412;6.724;2023-03-23T15:48:52;15.60;99.90
9837;DHT22;4957;51.412;6.724;2023-03-23T15:51:21;15.60;99.90
9837;DHT22;4957;51.412;6.724;2023-03-23T15:53:49;15.50;99.80
9837;DHT22;4957;51.412;6.724;2023-03-23T15:56:16;15.50;99.70
9837;DHT22;4957;51.412;6.724;2023-03-23T15:58:42;15.50;99.70
9837;DHT22;4957;51.412;6.724;2023-03-23T16:01:19;15.40;99.50
9837;DHT22;4957;51.412;6.724;2023-03-23T16:03:53;15.40;99.40
9837;DHT22;4957;51.412;6.724;2023-03-23T16:06:21;15.40;99.40
9837;DHT22;4957;51.412;6.724;2023-03-23T16:08:47;15.40;99.60
9837;DHT22;4957;51.412;6.724;2023-03-23T16:11:16;15.40;99.70
9837;DHT22;4957;51.412;6.724;2023-03-23T16:13:43;15.30;99.60
9837;DHT22;4957;51.412;6.724;2023-03-23T16:16:34;15.30;99.40
9837;DHT22;4957;51.412;6.724;2023-03-23T16:19:01;15.30;99.30
9837;DHT22;4957;51.412;6.724;2023-03-23T16:21:27;15.30;99.30
9837;DHT22;4957;51.412;6.724;2023-03-23T16:23:53;15.20;99.60
9837;DHT22;4957;51.412;6.724;2023-03-23T16:26:18;15.20;99.40
9837;DHT22;4957;51.412;6.724;2023-03-23T16:28:44;15.20;99.40
9837;DHT22;4957;51.412;6.724;2023-03-23T16:31:10;15.20;99.30
9837;DHT22;4957;51.412;6.724;2023-03-23T16:33:36;15.20;99.40
9837;DHT22;4957;51.412;6.724;2023-03-23T16:36:03;15.20;99.30
9837;DHT22;4957;51.412;6.724;2023-03-23T16:38:29;15.20;99.30
9837;DHT22;4957;51.412;6.724;2023-03-23T16:40:55;15.20;99.20
9837;DHT22;4957;51.412;6.724;2023-03-23T16:43:21;15.10;99.20
9837;DHT22;4957;51.412;6.724;2023-03-23T16:45:47;15.10;99.20
9837;DHT22;4957;51.412;6.724;2023-03-23T16:48:14;15.10;99.20
9837;DHT22;4957;51.412;6.724;2023-03-23T16:50:42;15.10;99.30
9837;DHT22;4957;51.412;6.724;2023-03-23T16:53:09;15.10;99.30
9837;DHT22;4957;51.412;6.724;2023-03-23T16:55:36;15.10;99.30
9837;DHT22;4957;51.412;6.724;2023-03-23T16:58:03;15.00;99.30
9837;DHT22;4957;51.412;6.724;2023-03-23T17:00:29;15.10;99.30
9837;DHT22;4957;51.412;6.724;2023-03-23T17:02:55;15.00;99.20
9837;DHT22;4957;51.412;6.724;2023-03-23T17:05:27;15.00;99.20
9837;DHT22;4957;51.412;6.724;2023-03-23T17:07:54;15.00;99.20
9837;DHT22;4957;51.412;6.724;2023-03-23T17:10:21;15.00;99.20
9837;DHT22;4957;51.412;6.724;2023-03-23T17:12:47;15.00;99.30
9837;DHT22;4957;51.412;6.724;2023-03-23T17:15:13;15.00;99.30
9837;DHT22;4957;51.412;6.724;2023-03-23T17:17:39;15.00;99.20
9837;DHT22;4957;51.412;6.724;2023-03-23T17:20:05;15.00;99.20
9837;DHT22;4957;51.412;6.724;2023-03-23T17:22:31;15.00;99.10
9837;DHT22;4957;51.412;6.724;2023-03-23T17:24:56;15.00;99.10
9837;DHT22;4957;51.412;6.724;2023-03-23T17:27:24;15.00;99.10
9837;DHT22;4957;51.412;6.724;2023-03-23T17:29:50;14.90;99.10
9837;DHT22;4957;51.412;6.724;2023-03-23T17:32:16;14.90;99.10
9837;DHT22;4957;51.412;6.724;2023-03-23T17:34:42;14.90;99.20
9837;DHT22;4957;51.412;6.724;2023-03-23T17:37:08;14.90;99.20
9837;DHT22;4957;51.412;6.724;2023-03-23T17:39:34;14.90;99.20
9837;DHT22;4957;51.412;6.724;2023-03-23T17:42:00;14.80;99.10
9837;DHT22;4957;51.412;6.724;2023-03-23T17:44:26;14.80;99.20
9837;DHT22;4957;51.412;6.724;2023-03-23T17:46:52;14.80;99.20
9837;DHT22;4957;51.412;6.724;2023-03-23T17:49:18;14.70;99.30
9837;DHT22;4957;51.412;6.724;2023-03-23T17:51:44;14.70;99.30
9837;DHT22;4957;51.412;6.724;2023-03-23T17:54:10;14.70;99.10
9837;DHT22;4957;51.412;6.724;2023-03-23T17:56:36;14.60;99.10
9837;DHT22;4957;51.412;6.724;2023-03-23T17:59:01;14.60;99.00
9837;DHT22;4957;51.412;6.724;2023-03-23T18:01:27;14.50;98.90